Goose Green, Vermont
Current Conditions -  °F | °C
As of 1:51 AM on Saturday 25 Oct 2014 (Local Time) from KMPV Reporting Station
Clear Clear  
Wind Chill: 35°   Ceiling: Unl
Heat Index: 35°   Visibility: 10mi
Dew Point: 34°   Wind: 0mph
Humidity: 96%   Direction: NA
Pressure: 29.81"   Gusts: NA
Location:  44.0361°N, 72.2949°W
Report Text: KMPV 250551Z AUTO 00000KT 10SM CLR 02/01 A2981 RMK AO2 SLP104 T00170011 10067 20017 58013 $
Loading
Personal Weather Stations






























Interactive Weather Map
Tropical Storm Tracking
New forecast layout! Learn more

10-Day Weather Forecast

Advertisements
Track Severe Weather on mobile